Arambare, Brazil
Current Conditions -  °F | °C
As of 8:00 PM on Sunday 25 Jan 2015 (Local Time) from SBPA Reporting Station
Few Clouds Few Clouds  
Wind Chill: 88°   Ceiling: Unl
Heat Index: 90°   Visibility: 6mi
Dew Point: 66°   Wind: 3mph
Humidity: 49%   Direction: 320°NW
Pressure: 29.8"   Gusts: NA
Location:  30.91°S, 51.5°W
Report Text: SBPA 252200Z 32003KT 270V350 9999 FEW040 FEW050TCU 31/19 Q1009
Loading
Personal Weather Stations






























Interactive Weather Map New forecast layout! Learn more

10-Day Weather Forecast

Advertisements
Track Severe Weather on mobile